Time;durP1;ratioP1;P1;durP2;ratioP2;P2;SDS_P1;SDS_P2;PMS_P1;PMS_P2;Temp;Humidity;BMP_temperature;BMP_pressure;BME280_temperature;BME280_humidity;BME280_pressure;Samples;Min_cycle;Max_cycle;Signal;HPM_P1;HPM_P2
2022/07/27 00:07:25;;;;;;;4.55;2.33;;;;;;;23.65;43.60;100228.53;18298199;32;20097;-55
2022/07/27 00:17:29;;;;;;;5.35;2.40;;;;;;;23.49;45.11;100233.03;18296382;32;20120;-55
2022/07/27 00:27:33;;;;;;;4.57;2.40;;;;;;;23.19;46.37;100229.41;18295471;32;20170;-55
2022/07/27 00:37:38;;;;;;;5.62;2.58;;;;;;;23.04;46.92;100224.97;18295883;32;20168;-55
2022/07/27 00:47:42;;;;;;;5.57;2.55;;;;;;;22.73;47.59;100228.44;18347516;32;20116;-55
2022/07/27 00:57:47;;;;;;;5.07;2.45;;;;;;;22.36;49.46;100221.59;18348767;32;20141;-55
2022/07/27 01:08:01;;;;;;;3.78;2.20;;;;;;;22.01;50.32;100233.19;18294687;32;20465;-55
2022/07/27 01:18:10;;;;;;;3.92;2.20;;;;;;;21.89;50.46;100238.19;18293702;32;20098;-55
2022/07/27 01:28:15;;;;;;;5.37;2.80;;;;;;;21.79;52.13;100241.41;18295061;32;20090;-55
2022/07/27 01:38:18;;;;;;;5.68;2.50;;;;;;;21.38;53.26;100246.06;18294231;32;20108;-55
2022/07/27 01:48:23;;;;;;;5.93;2.80;;;;;;;20.96;54.43;100239.28;18293149;32;20098;-55
2022/07/27 01:58:26;;;;;;;6.68;2.80;;;;;;;20.42;56.55;100255.91;18293767;32;20143;-55
2022/07/27 02:08:31;;;;;;;6.78;2.90;;;;;;;20.26;56.70;100256.59;18292051;32;20112;-55
2022/07/27 02:18:34;;;;;;;6.45;3.25;;;;;;;19.89;57.13;100252.88;18291463;32;20098;-55
2022/07/27 02:28:41;;;;;;;8.07;3.35;;;;;;;19.62;58.04;100255.78;18291269;32;20141;-55
2022/07/27 02:38:44;;;;;;;6.80;2.90;;;;;;;19.39;59.15;100250.53;18291859;32;20094;-55
2022/07/27 02:48:49;;;;;;;5.87;2.60;;;;;;;19.37;59.30;100249.75;18290308;32;20137;-55
2022/07/27 02:58:52;;;;;;;8.02;3.00;;;;;;;19.31;60.92;100262.38;18298150;32;20098;-55
2022/07/27 03:08:56;;;;;;;7.05;3.03;;;;;;;19.27;61.64;100272.22;18299332;32;20102;-55
2022/07/27 03:19:00;;;;;;;7.12;3.17;;;;;;;19.29;62.03;100266.88;18298810;32;20106;-55
2022/07/27 03:29:04;;;;;;;6.22;3.05;;;;;;;19.46;61.47;100274.13;18299705;32;20102;-55
2022/07/27 03:39:07;;;;;;;8.85;3.53;;;;;;;19.39;62.47;100261.13;18298533;32;20426;-55
2022/07/27 03:49:13;;;;;;;6.82;2.97;;;;;;;19.65;60.69;100264.47;18298029;32;20089;-55
2022/07/27 03:59:17;;;;;;;7.78;3.17;;;;;;;19.31;61.23;100257.97;18298809;32;20116;-55
2022/07/27 04:09:22;;;;;;;7.18;3.17;;;;;;;19.71;60.39;100250.09;18295983;32;20112;-55
2022/07/27 04:19:27;;;;;;;6.62;2.85;;;;;;;20.59;59.07;100263.06;18348965;32;20097;-55
2022/07/27 04:29:31;;;;;;;6.03;3.00;;;;;;;21.44;56.56;100260.84;18296284;32;20097;-55
2022/07/27 04:39:36;;;;;;;8.45;3.22;;;;;;;21.63;56.06;100256.31;18296630;32;20145;-55
2022/07/27 04:49:41;;;;;;;6.57;3.10;;;;;;;20.57;60.27;100279.03;18348055;32;20109;-55
2022/07/27 04:59:44;;;;;;;8.23;3.00;;;;;;;22.18;56.64;100280.13;18295207;32;20101;-55
2022/07/27 05:09:48;;;;;;;6.45;2.78;;;;;;;22.92;54.57;100283.28;18294816;32;20145;-55
2022/07/27 05:19:52;;;;;;;6.72;3.08;;;;;;;23.58;51.99;100276.94;18293640;32;20120;-55
2022/07/27 05:29:56;;;;;;;8.70;3.15;;;;;;;23.53;50.60;100279.88;18293969;32;20124;-55
2022/07/27 05:40:00;;;;;;;3.58;2.00;;;;;;;24.80;47.52;100274.87;18293639;32;20094;-55
2022/07/27 05:50:05;;;;;;;3.47;2.00;;;;;;;25.02;43.43;100288.63;18293107;32;20358;-55
2022/07/27 06:00:11;;;;;;;5.87;2.22;;;;;;;25.65;41.18;100298.81;18292874;32;20103;-55
2022/07/27 06:10:16;;;;;;;4.90;2.22;;;;;;;25.80;40.26;100319.19;18292320;32;20151;-55
2022/07/27 06:20:20;;;;;;;3.55;2.00;;;;;;;26.18;41.88;100321.03;18291046;32;20090;-55
2022/07/27 06:30:25;;;;;;;6.28;2.28;;;;;;;25.64;41.64;100346.06;18290654;32;20098;-55
2022/07/27 06:40:28;;;;;;;3.95;2.10;;;;;;;26.48;40.67;100344.91;18291281;32;20457;-56
2022/07/27 06:50:33;;;;;;;5.70;2.30;;;;;;;26.65;39.48;100349.06;18290421;32;20142;-55
2022/07/27 07:00:36;;;;;;;4.82;2.20;;;;;;;27.20;36.95;100341.56;18290102;32;20106;-55
2022/07/27 07:10:43;;;;;;;3.28;2.00;;;;;;;27.95;35.41;100328.87;18289380;32;20108;-55
2022/07/27 07:20:46;;;;;;;5.12;1.80;;;;;;;27.24;35.78;100340.38;18289013;32;20464;-56
2022/07/27 07:30:51;;;;;;;3.97;1.77;;;;;;;28.28;33.68;100341.63;18288632;32;20091;-55
2022/07/27 07:40:54;;;;;;;2.67;1.50;;;;;;;28.96;33.49;100327.38;18292974;32;20102;-55
2022/07/27 07:50:58;;;;;;;2.17;1.42;;;;;;;29.41;32.19;100319.19;18298946;32;20086;-55
2022/07/27 08:01:02;;;;;;;5.28;1.73;;;;;;;28.48;33.59;100316.75;18296978;32;20120;-55
2022/07/27 08:11:06;;;;;;;4.20;1.80;;;;;;;29.62;31.98;100319.22;18297828;32;20094;-55
2022/07/27 08:21:09;;;;;;;3.67;1.48;;;;;;;30.36;30.11;100311.22;18296353;32;20086;-55
2022/07/27 08:31:15;;;;;;;3.40;1.40;;;;;;;29.73;28.96;100306.72;18348550;32;20123;-55
2022/07/27 08:41:27;;;;;;;4.32;1.65;;;;;;;30.51;27.47;100298.25;18295953;32;20111;-56
2022/07/27 08:51:32;;;;;;;4.85;2.20;;;;;;;29.90;28.22;100294.53;18295706;32;20089;-55
2022/07/27 09:01:36;;;;;;;6.78;2.33;;;;;;;30.36;28.04;100280.78;18295168;32;20097;-55
2022/07/27 09:11:40;;;;;;;5.35;2.10;;;;;;;30.50;27.66;100275.00;18346978;32;20112;-55
2022/07/27 09:21:44;;;;;;;7.30;3.53;;;;;;;31.60;25.83;100264.25;18294154;32;20124;-55
2022/07/27 09:31:50;;;;;;;6.80;3.20;;;;;;;31.39;25.11;100265.22;18294066;32;20094;-55
2022/07/27 09:41:56;;;;;;;6.62;3.30;;;;;;;31.07;25.29;100260.97;18293254;32;20089;-55
2022/07/27 09:52:04;;;;;;;8.85;4.40;;;;;;;31.45;24.28;100266.53;18294109;32;20131;-55
2022/07/27 10:02:07;;;;;;;10.10;5.82;;;;;;;32.71;23.81;100254.63;18292722;32;20089;-55
2022/07/27 10:12:12;;;;;;;8.90;4.50;;;;;;;32.82;20.54;100252.69;18292110;32;20094;-55
2022/07/27 10:22:16;;;;;;;7.12;3.55;;;;;;;33.87;21.73;100242.16;18343947;32;20116;-56
2022/07/27 10:32:29;;;;;;;7.97;3.95;;;;;;;34.26;20.36;100237.28;18291375;32;20438;-55
2022/07/27 10:42:33;;;;;;;10.00;4.72;;;;;;;34.32;19.34;100239.31;18344291;32;20526;-55
2022/07/27 10:52:43;;;;;;;8.43;4.40;;;;;;;34.19;18.84;100231.66;18290448;32;20833;-56
2022/07/27 11:02:46;;;;;;;;;;;;;;;34.18;19.42;100236.22;18290405;32;20101;-55
2022/07/27 11:12:53;;;;;;;6.72;3.60;;;;;;;33.45;19.25;100223.87;18292132;32;19988;-56
2022/07/27 11:22:58;;;;;;;7.43;3.78;;;;;;;33.79;16.75;100209.63;18352046;32;20407;-55
2022/07/27 11:33:23;;;;;;;5.68;2.85;;;;;;;33.73;18.01;100194.00;18298529;32;20089;-55
2022/07/27 11:43:34;;;;;;;6.28;3.33;;;;;;;32.37;18.43;100193.13;18298241;32;20097;-55
2022/07/27 11:53:41;;;;;;;7.28;2.80;;;;;;;33.41;17.93;100185.47;18297640;32;20425;-55
2022/07/27 12:03:44;;;;;;;5.30;2.33;;;;;;;32.18;18.45;100184.13;18297298;32;20105;-55
2022/07/27 12:13:57;;;;;;;4.32;1.98;;;;;;;33.05;17.56;100175.59;18297922;32;20370;-55
2022/07/27 12:24:01;;;;;;;4.12;1.95;;;;;;;33.46;17.67;100166.97;18295701;32;20108;-56
2022/07/27 12:34:06;;;;;;;4.95;2.28;;;;;;;34.90;15.81;100139.19;18296200;32;20108;-55
2022/07/27 12:44:11;;;;;;;5.18;2.08;;;;;;;35.26;16.97;100133.44;18295933;32;20409;-55
2022/07/27 12:54:15;;;;;;;5.40;2.20;;;;;;;34.63;17.39;100132.25;18347510;32;20153;-56
2022/07/27 13:04:19;;;;;;;3.90;2.00;;;;;;;34.86;18.29;100133.28;18294915;32;20097;-55
2022/07/27 13:14:24;;;;;;;4.03;2.20;;;;;;;34.39;17.85;100120.34;18295457;32;20094;-55
2022/07/27 13:24:27;;;;;;;4.93;2.20;;;;;;;34.19;17.86;100112.47;18294404;32;20121;-56
2022/07/27 13:34:32;;;;;;;6.82;2.17;;;;;;;32.59;19.40;100118.06;18293592;32;20066;-55
2022/07/27 13:44:35;;;;;;;4.62;2.10;;;;;;;33.42;18.26;100099.78;18293630;32;20145;-56
2022/07/27 13:55:00;;;;;;;4.00;1.95;;;;;;;34.91;17.70;100083.97;18294321;32;20183;-56
2022/07/27 14:05:03;;;;;;;5.40;2.17;;;;;;;34.36;17.90;100086.31;18345134;32;20116;-55
2022/07/27 14:15:11;;;;;;;4.22;2.20;;;;;;;35.32;17.21;100071.37;18345763;32;20433;-56
2022/07/27 14:25:14;;;;;;;4.53;2.05;;;;;;;35.57;17.40;100055.88;18344328;32;20166;-56
2022/07/27 14:35:20;;;;;;;3.75;1.80;;;;;;;35.53;16.67;100049.91;18344043;32;20468;-56
2022/07/27 14:45:23;;;;;;;7.68;2.20;;;;;;;34.83;17.75;100054.16;18290548;32;20116;-56
2022/07/27 14:55:48;;;;;;;4.10;1.92;;;;;;;33.18;19.47;100044.53;18352824;32;20116;-56
2022/07/27 15:05:51;;;;;;;3.55;2.10;;;;;;;33.46;19.22;100044.34;18300797;32;20101;-56
2022/07/27 15:15:56;;;;;;;4.82;1.83;;;;;;;33.61;19.53;100050.00;18299037;32;20107;-56
2022/07/27 15:26:00;;;;;;;3.97;1.83;;;;;;;33.41;20.01;100038.59;18298989;32;20086;-56
2022/07/27 15:36:05;;;;;;;3.90;2.17;;;;;;;33.41;19.54;100030.47;18298376;32;20128;-56
2022/07/27 15:46:08;;;;;;;3.45;1.80;;;;;;;32.92;19.81;100023.78;18298194;32;20090;-56
2022/07/27 15:56:13;;;;;;;4.85;1.90;;;;;;;32.42;20.23;100026.06;18324225;32;20109;-56
2022/07/27 16:06:17;;;;;;;2.42;1.70;;;;;;;33.51;18.42;100017.69;18349714;32;20109;-56
2022/07/27 16:16:28;;;;;;;3.95;1.80;;;;;;;33.60;19.74;100023.97;18349130;32;20094;-56
2022/07/27 16:26:32;;;;;;;2.95;1.58;;;;;;;33.47;19.74;100024.41;18296244;31;20128;-56
2022/07/27 16:36:37;;;;;;;3.85;1.73;;;;;;;33.41;20.60;100027.78;18296049;32;20106;-55
2022/07/27 16:46:42;;;;;;;2.95;1.60;;;;;;;33.22;21.22;100045.94;18296036;32;20114;-55
2022/07/27 16:56:47;;;;;;;3.05;1.80;;;;;;;32.95;22.64;100050.50;18295393;32;20137;-56
2022/07/27 17:06:50;;;;;;;4.47;1.98;;;;;;;32.71;23.34;100051.97;18295113;32;20729;-55
2022/07/27 17:16:55;;;;;;;4.35;1.98;;;;;;;32.60;23.62;100049.50;18293929;32;20105;-55
2022/07/27 17:26:59;;;;;;;4.05;2.15;;;;;;;32.16;25.92;100075.44;18294489;32;20461;-55
2022/07/27 17:37:05;;;;;;;5.30;1.85;;;;;;;32.00;26.52;100080.66;18347575;32;20404;-55
2022/07/27 17:47:08;;;;;;;3.97;2.25;;;;;;;31.10;27.45;100072.00;18293582;32;20086;-55
2022/07/27 17:57:13;;;;;;;5.20;2.15;;;;;;;30.89;28.36;100076.72;18345739;32;20140;-55
2022/07/27 18:07:17;;;;;;;4.62;2.37;;;;;;;30.62;28.95;100087.22;18292421;32;20090;-56
2022/07/27 18:17:21;;;;;;;3.83;1.87;;;;;;;30.42;29.64;100094.41;18291838;32;20111;-56
2022/07/27 18:27:24;;;;;;;14.87;3.60;;;;;;;30.13;30.11;100119.44;18291705;32;20110;-56
2022/07/27 18:37:29;;;;;;;3.70;1.98;;;;;;;29.80;30.60;100122.28;18291628;32;20114;-55
2022/07/27 18:47:32;;;;;;;3.47;1.70;;;;;;;29.89;29.58;100142.16;18290847;32;20151;-55
2022/07/27 18:57:37;;;;;;;3.97;1.80;;;;;;;29.54;29.74;100165.75;18342772;32;20125;-55
2022/07/27 19:07:40;;;;;;;4.68;2.00;;;;;;;29.34;30.51;100175.53;18342314;32;20105;-55
2022/07/27 19:17:46;;;;;;;6.35;2.72;;;;;;;28.88;35.02;100183.78;18288846;32;20442;-55
2022/07/27 19:27:50;;;;;;;5.70;2.70;;;;;;;28.57;37.06;100193.50;18341176;32;20094;-56
2022/07/27 19:37:54;;;;;;;6.70;2.95;;;;;;;28.51;37.46;100208.28;18293976;32;20132;-55
2022/07/27 19:48:00;;;;;;;6.20;2.47;;;;;;;28.48;38.26;100216.59;18297711;32;20104;-55
2022/07/27 19:58:04;;;;;;;4.95;2.50;;;;;;;28.50;38.07;100231.59;18297883;32;20446;-54
2022/07/27 20:08:07;;;;;;;5.00;2.28;;;;;;;28.20;38.15;100251.00;18295272;31;105434;-54
2022/07/27 20:18:12;;;;;;;3.65;2.10;;;;;;;28.24;36.45;100255.16;18296727;32;20094;-55
2022/07/27 20:28:15;;;;;;;6.55;2.25;;;;;;;28.27;36.34;100291.63;18296728;32;20093;-56
2022/07/27 20:38:20;;;;;;;3.67;2.00;;;;;;;27.68;36.29;100287.13;18296322;32;20082;-55
2022/07/27 20:48:23;;;;;;;4.50;2.10;;;;;;;27.71;36.26;100288.72;18295315;32;20486;-54
2022/07/27 20:58:28;;;;;;;3.25;1.90;;;;;;;27.56;37.05;100272.81;18295665;32;20089;-55
2022/07/27 21:08:31;;;;;;;4.60;1.70;;;;;;;26.98;36.89;100268.16;18295221;32;20102;-55
2022/07/27 21:18:35;;;;;;;5.18;1.60;;;;;;;27.02;37.00;100271.47;18348016;32;20442;-55
2022/07/27 21:28:39;;;;;;;3.62;1.40;;;;;;;26.96;36.25;100288.84;18295122;32;20082;-56
2022/07/27 21:38:45;;;;;;;3.58;1.65;;;;;;;26.84;36.91;100306.62;18293992;32;20173;-55
2022/07/27 21:48:49;;;;;;;3.05;1.52;;;;;;;27.06;36.69;100320.31;18293595;32;20100;-54
2022/07/27 21:58:54;;;;;;;2.90;1.23;;;;;;;26.68;36.21;100336.34;18292747;32;20094;-55
2022/07/27 22:08:57;;;;;;;3.30;1.50;;;;;;;26.98;34.57;100343.16;18292500;32;20149;-55
2022/07/27 22:19:02;;;;;;;2.42;1.30;;;;;;;27.01;34.54;100358.16;18292175;32;20394;-56
2022/07/27 22:29:05;;;;;;;2.40;1.27;;;;;;;27.00;34.86;100368.00;18291975;32;20117;-56
2022/07/27 22:39:11;;;;;;;4.35;1.40;;;;;;;26.50;36.56;100367.06;18291201;32;20180;-56
2022/07/27 22:49:14;;;;;;;2.55;1.23;;;;;;;25.66;38.13;100364.69;18291799;32;20116;-56
2022/07/27 22:59:19;;;;;;;1.85;1.20;;;;;;;26.73;36.45;100371.66;18290266;32;20125;-56
2022/07/27 23:09:23;;;;;;;2.33;1.23;;;;;;;26.74;36.87;100370.69;18291379;32;20090;-56
2022/07/27 23:19:27;;;;;;;2.35;1.25;;;;;;;26.49;37.96;100360.00;18299086;32;20137;-56
2022/07/27 23:29:30;;;;;;;6.20;1.62;;;;;;;26.52;38.04;100362.47;18299100;32;20760;-56
2022/07/27 23:39:41;;;;;;;4.12;1.48;;;;;;;26.35;38.65;100385.91;18298858;32;20085;-56
2022/07/27 23:49:44;;;;;;;2.03;1.35;;;;;;;25.37;41.38;100394.13;18298106;32;20440;-56
2022/07/27 23:59:50;;;;;;;6.62;2.20;;;;;;;24.67;42.38;100368.16;18297753;32;20382;-56
